This is the latest recevied weather packets stored in our database for station/object F4WDE-10. If no packets are shown the sender has not sent any weather packets the latest 1 day(s).
| Time | Temp. | Humidity | Pressure | Rain* | Wind** | Luminosity | Snow |
|---|---|---|---|---|---|---|---|
| 1778047062 | 15.56° C | 81% | 954 hPa | - | - | - | - |
| 1778045260 | 15.56° C | 84% | 954 hPa | - | - | - | - |
| 1778044359 | 13.89° C | 91% | 954 hPa | - | - | - | - |
| 1778043458 | 14.44° C | 89% | 954 hPa | - | - | - | - |
| 1778042556 | 14.44° C | 88% | 954 hPa | - | - | - | - |
| 1778041655 | 14.44° C | 87% | 954 hPa | - | - | - | - |
| 1778040754 | 14.44° C | 89% | 954 hPa | - | - | - | - |
| 1778039853 | 14.44° C | 91% | 954 hPa | - | - | - | - |
| 1778038952 | 14.44° C | 94% | 954 hPa | - | - | - | - |
| 1778038051 | 13.89° C | 93% | 954 hPa | - | - | - | - |
| 1778037150 | 14.44° C | 93% | 954 hPa | - | - | - | - |
| 1778036249 | 13.89° C | 100% | 955 hPa | - | - | - | - |
| 1778034446 | 14.44° C | 91% | 954 hPa | - | - | - | - |
| 1778032644 | 15° C | 88% | 954 hPa | - | - | - | - |
| 1778031743 | 13.89° C | 91% | 954 hPa | - | - | - | - |
| 1778030842 | 14.44° C | 87% | 954 hPa | - | - | - | - |
| 1778029941 | 13.89° C | 90% | 954 hPa | - | - | - | - |
| 1778029040 | 13.89° C | 89% | 955 hPa | - | - | - | - |
| 1778028139 | 15° C | 80% | 955 hPa | - | - | - | - |
| 1778027238 | 15° C | 82% | 955 hPa | - | - | - | - |
| 1778020930 | 15.56° C | 95% | 956 hPa | - | - | - | - |
| 1778018227 | 16.11° C | 95% | 957 hPa | - | - | - | - |
| 1778017326 | 16.11° C | 97% | 957 hPa | - | - | - | - |
| 1778016425 | 16.11° C | 97% | 957 hPa | - | - | - | - |
| 1778015524 | 16.11° C | 98% | 958 hPa | - | - | - | - |
* Rain since midnight (hover to see other rain measurements)
** Current wind speed in m/s (hover to see current wind gust speed)